Time;durP1;ratioP1;P1;durP2;ratioP2;P2;SDS_P1;SDS_P2;PMS_P1;PMS_P2;Temp;Humidity;BMP_temperature;BMP_pressure;BME280_temperature;BME280_humidity;BME280_pressure;Samples;Min_cycle;Max_cycle;Signal;HPM_P1;HPM_P2
2023/10/18 00:00:48;;;;;;;4.50;4.10;;;;;;;3.91;100.00;97884.44;1224950;75;2921658;-67
2023/10/18 00:03:22;;;;;;;5.20;4.50;;;;;;;3.91;100.00;97887.13;1224849;75;2930389;-66
2023/10/18 00:05:55;;;;;;;4.10;3.70;;;;;;;3.86;100.00;97884.19;1224686;75;2932077;-67
2023/10/18 00:08:30;;;;;;;4.85;4.35;;;;;;;3.57;100.00;97882.16;1225214;75;2946455;-66
2023/10/18 00:11:04;;;;;;;5.60;5.00;;;;;;;3.59;100.00;97869.72;1224603;75;2920553;-67
2023/10/18 00:13:36;;;;;;;5.35;4.85;;;;;;;3.59;100.00;97867.03;1224883;75;2915819;-67
2023/10/18 00:16:12;;;;;;;5.85;5.10;;;;;;;3.59;100.00;97863.56;1221731;75;3068557;-69
2023/10/18 00:18:45;;;;;;;5.65;5.00;;;;;;;3.62;100.00;97865.41;1224804;75;2920054;-65
2023/10/18 00:21:18;;;;;;;5.90;5.00;;;;;;;3.65;100.00;97864.56;1217692;75;3074741;-64
2023/10/18 00:23:54;;;;;;;5.00;4.35;;;;;;;3.63;100.00;97856.88;1224906;75;2928304;-67
2023/10/18 00:26:26;;;;;;;4.90;4.40;;;;;;;3.62;100.00;97849.16;1225066;75;2911344;-68
2023/10/18 00:28:59;;;;;;;5.05;4.55;;;;;;;3.53;100.00;97841.63;1225558;75;2911892;-67
2023/10/18 00:31:32;;;;;;;5.10;4.10;;;;;;;3.48;100.00;97847.56;1224067;75;2927607;-65
2023/10/18 00:34:06;;;;;;;4.50;4.00;;;;;;;3.51;100.00;97849.44;1224170;75;2922783;-67
2023/10/18 00:36:38;;;;;;;4.70;4.20;;;;;;;3.49;100.00;97851.03;1224966;75;2917838;-69
2023/10/18 00:39:20;;;;;;;5.55;4.60;;;;;;;3.49;100.00;97843.69;1224369;75;2922768;-66
2023/10/18 00:41:54;;;;;;;4.50;4.00;;;;;;;3.41;100.00;97845.78;1225232;75;2915631;-65
2023/10/18 00:44:27;;;;;;;4.30;3.90;;;;;;;3.08;100.00;97841.53;1224925;75;2926082;-67
2023/10/18 00:47:00;;;;;;;5.65;5.15;;;;;;;3.14;100.00;97834.44;1225400;75;2919155;-66
2023/10/18 00:49:33;;;;;;;5.55;5.05;;;;;;;3.31;100.00;97829.81;1225033;75;2920969;-66
2023/10/18 00:52:06;;;;;;;5.15;4.65;;;;;;;3.30;100.00;97836.41;1222577;75;2940544;-65
2023/10/18 00:54:44;;;;;;;4.40;4.00;;;;;;;3.25;100.00;97837.66;1225443;75;2901973;-70
2023/10/18 00:57:20;;;;;;;5.65;4.50;;;;;;;3.25;100.00;97845.78;1224919;75;2921559;-68
2023/10/18 00:59:55;;;;;;;4.65;4.25;;;;;;;3.25;100.00;97836.88;1224677;75;2919655;-65
2023/10/18 01:02:29;;;;;;;12.05;10.60;;;;;;;3.06;100.00;97827.69;1224976;75;2918062;-65
2023/10/18 01:05:02;;;;;;;12.10;10.70;;;;;;;3.12;100.00;97826.72;1224419;75;2919465;-66
2023/10/18 01:07:34;;;;;;;9.65;8.65;;;;;;;3.16;100.00;97823.97;1224352;75;2916291;-70
2023/10/18 01:10:12;;;;;;;12.20;10.90;;;;;;;2.74;100.00;97838.00;1224126;75;2920862;-70
2023/10/18 01:12:45;;;;;;;13.65;12.25;;;;;;;2.70;100.00;97839.25;1224501;75;2919587;-70
2023/10/18 01:15:19;;;;;;;13.10;11.80;;;;;;;2.82;100.00;97840.56;1224817;75;2922365;-67
2023/10/18 01:17:54;;;;;;;11.05;10.00;;;;;;;2.91;100.00;97841.50;1223605;75;2914444;-66
2023/10/18 01:20:38;;;;;;;9.25;8.25;;;;;;;2.92;100.00;97831.44;1223120;75;2945492;-70
2023/10/18 01:23:11;;;;;;;10.00;9.00;;;;;;;2.79;100.00;97828.66;1223803;75;2937829;-67
2023/10/18 01:25:47;;;;;;;8.75;7.85;;;;;;;3.04;100.00;97817.28;1224299;75;2916172;-68
2023/10/18 01:28:19;;;;;;;8.60;7.70;;;;;;;2.95;100.00;97804.31;1221803;75;2914981;-69
2023/10/18 01:30:52;;;;;;;14.95;11.25;;;;;;;3.01;100.00;97811.94;1225017;75;2874911;-68
2023/10/18 01:33:26;;;;;;;13.95;11.40;;;;;;;2.97;100.00;97806.63;1224318;75;2922316;-67
2023/10/18 01:36:00;;;;;;;17.20;13.50;;;;;;;2.71;100.00;97809.09;1224830;75;2919362;-65
2023/10/18 01:38:33;;;;;;;16.00;13.95;;;;;;;2.93;100.00;97812.09;1224963;75;2848852;-67
2023/10/18 01:41:13;;;;;;;14.90;12.85;;;;;;;2.91;100.00;97810.97;1219698;75;2930234;-66
2023/10/18 01:43:47;;;;;;;10.10;8.50;;;;;;;2.95;100.00;97808.97;1219033;75;2990006;-67
2023/10/18 01:46:23;;;;;;;11.10;8.55;;;;;;;2.94;100.00;97807.47;1218618;75;2999799;-69
2023/10/18 01:48:57;;;;;;;7.95;7.15;;;;;;;2.89;100.00;97808.72;1223741;75;2871035;-70
2023/10/18 01:51:30;;;;;;;6.60;6.00;;;;;;;2.84;100.00;97805.72;1224560;75;2916166;-69
2023/10/18 01:54:12;;;;;;;6.95;5.95;;;;;;;2.81;100.00;97806.59;1225222;75;2926783;-66
2023/10/18 01:56:51;;;;;;;5.85;5.25;;;;;;;2.75;100.00;97809.03;1224337;75;2920203;-65
2023/10/18 01:59:27;;;;;;;5.70;5.10;;;;;;;2.72;100.00;97799.81;1224319;75;2930847;-67
2023/10/18 02:02:00;;;;;;;5.60;5.10;;;;;;;2.75;100.00;97790.09;1224716;67;2942343;-68
2023/10/18 02:04:36;;;;;;;5.45;4.60;;;;;;;2.70;100.00;97796.78;1220654;75;3097846;-69
2023/10/18 02:07:09;;;;;;;4.75;4.25;;;;;;;2.67;100.00;97797.63;1224162;75;2920963;-68
2023/10/18 02:09:47;;;;;;;5.35;4.80;;;;;;;2.65;100.00;97791.09;1223726;75;2930181;-71
2023/10/18 02:12:27;;;;;;;5.90;5.30;;;;;;;2.40;100.00;97786.97;1224539;75;2928539;-68
2023/10/18 02:15:01;;;;;;;5.55;4.95;;;;;;;2.52;100.00;97790.97;1224075;75;2928191;-68
2023/10/18 02:17:34;;;;;;;5.95;5.15;;;;;;;2.45;100.00;97797.28;1224239;75;2934308;-67
2023/10/18 02:20:14;;;;;;;5.35;4.75;;;;;;;2.53;100.00;97789.81;1223753;75;2920162;-68
2023/10/18 02:22:46;;;;;;;5.50;4.85;;;;;;;2.37;100.00;97782.41;1223664;75;2922382;-68
2023/10/18 02:25:37;;;;;;;4.90;4.40;;;;;;;2.51;100.00;97787.50;1224055;75;2930053;-67
2023/10/18 02:28:22;;;;;;;4.90;4.30;;;;;;;2.51;100.00;97797.56;1224458;75;2926298;-69
2023/10/18 02:31:09;;;;;;;5.65;5.05;;;;;;;2.37;100.00;97784.34;1224370;75;2916590;-67
2023/10/18 02:33:42;;;;;;;5.90;5.05;;;;;;;2.42;100.00;97781.16;1225029;75;2917622;-70
2023/10/18 02:36:21;;;;;;;5.10;4.60;;;;;;;2.45;100.00;97793.81;1224274;75;2919912;-66
2023/10/18 02:38:54;;;;;;;7.55;5.10;;;;;;;2.39;100.00;97793.56;1224650;75;2947875;-67
2023/10/18 02:41:27;;;;;;;4.90;4.40;;;;;;;2.39;100.00;97793.56;1221559;75;2925480;-67
2023/10/18 02:44:07;;;;;;;5.10;4.40;;;;;;;2.35;100.00;97792.84;1223172;75;2920696;-68
2023/10/18 02:46:40;;;;;;;7.75;4.60;;;;;;;2.31;100.00;97784.09;1224006;75;2934998;-68
2023/10/18 02:49:13;;;;;;;5.90;5.00;;;;;;;2.30;100.00;97782.53;1224799;75;2923250;-68
2023/10/18 02:51:45;;;;;;;5.35;4.85;;;;;;;2.33;100.00;97785.19;1223987;75;2918990;-68
2023/10/18 02:54:23;;;;;;;5.10;4.60;;;;;;;2.33;100.00;97792.50;1224749;75;2917117;-66
2023/10/18 02:56:55;;;;;;;5.90;5.15;;;;;;;2.19;100.00;97796.28;1223573;75;2920324;-70
2023/10/18 02:59:32;;;;;;;6.50;5.55;;;;;;;2.07;100.00;97797.66;1224249;75;2937973;-68
2023/10/18 03:02:13;;;;;;;6.90;5.75;;;;;;;2.05;100.00;97804.66;1224465;75;2920981;-68
2023/10/18 03:04:47;;;;;;;6.90;6.20;;;;;;;2.06;100.00;97798.06;1223613;75;2930581;-71
2023/10/18 03:07:21;;;;;;;6.80;6.10;;;;;;;1.91;100.00;97803.72;1222190;75;2939451;-66
2023/10/18 03:09:58;;;;;;;6.85;6.10;;;;;;;2.06;100.00;97790.72;1224416;75;2923712;-66
2023/10/18 03:12:36;;;;;;;6.40;5.70;;;;;;;2.04;100.00;97801.16;1224283;75;2926066;-69
2023/10/18 03:15:17;;;;;;;6.10;5.50;;;;;;;1.88;100.00;97801.09;1224098;75;2926756;-72
2023/10/18 03:17:50;;;;;;;8.35;6.80;;;;;;;1.81;100.00;97804.69;1223760;83;2922545;-69
2023/10/18 03:20:23;;;;;;;8.10;6.85;;;;;;;1.66;100.00;97798.00;1224595;75;2925344;-67
2023/10/18 03:22:56;;;;;;;8.25;7.40;;;;;;;1.67;100.00;97794.13;1223343;75;2920746;-69
2023/10/18 03:25:30;;;;;;;7.15;6.45;;;;;;;1.88;100.00;97801.09;1224229;75;2929569;-70
2023/10/18 03:28:04;;;;;;;7.95;7.10;;;;;;;1.77;100.00;97798.56;1224118;75;2922825;-67
2023/10/18 03:30:44;;;;;;;9.65;8.15;;;;;;;1.64;100.00;97795.72;1223298;75;2925042;-70
2023/10/18 03:33:19;;;;;;;9.60;6.90;;;;;;;1.63;100.00;97802.28;1224531;75;2931419;-70
2023/10/18 03:36:06;;;;;;;7.55;6.70;;;;;;;1.73;100.00;97794.41;1194741;75;4088141;-68
2023/10/18 03:38:42;;;;;;;6.90;6.20;;;;;;;1.64;100.00;97801.13;1223735;75;2923315;-66
2023/10/18 03:41:22;;;;;;;10.40;8.70;;;;;;;1.48;100.00;97793.66;1223823;75;2926591;-70
2023/10/18 03:44:03;;;;;;;11.35;8.95;;;;;;;1.64;100.00;97797.66;1223813;75;2928733;-68
2023/10/18 03:46:47;;;;;;;10.80;8.50;;;;;;;1.55;100.00;97781.25;1224030;75;2923790;-66
2023/10/18 03:49:31;;;;;;;10.80;9.25;;;;;;;1.58;100.00;97781.16;1224244;75;2923852;-73
2023/10/18 03:52:20;;;;;;;9.25;8.05;;;;;;;1.55;100.00;97784.69;1224567;75;2923447;-68
2023/10/18 03:55:04;;;;;;;9.55;7.35;;;;;;;1.67;100.00;97777.94;1224272;75;2929464;-67
2023/10/18 03:57:41;;;;;;;9.55;7.40;;;;;;;1.54;100.00;97779.72;1224550;75;2919745;-69
2023/10/18 04:00:37;;;;;;;9.45;7.65;;;;;;;1.49;100.00;97779.03;1223961;75;2931129;-70
2023/10/18 04:03:12;;;;;;;9.30;6.35;;;;;;;1.42;100.00;97784.53;1224405;75;2921336;-72
2023/10/18 04:05:46;;;;;;;7.80;6.55;;;;;;;1.38;100.00;97788.47;1224097;75;2927803;-67
2023/10/18 04:08:19;;;;;;;7.35;6.35;;;;;;;1.35;100.00;97784.66;1224592;75;2930190;-67
2023/10/18 04:11:02;;;;;;;8.35;6.55;;;;;;;1.26;100.00;97789.81;1223360;75;2934372;-68
2023/10/18 04:13:36;;;;;;;9.65;7.40;;;;;;;1.20;100.00;97786.03;1221569;75;2954136;-71
2023/10/18 04:16:17;;;;;;;9.80;7.90;;;;;;;1.26;100.00;97785.16;1223905;75;2930037;-67
2023/10/18 04:18:52;;;;;;;8.50;7.55;;;;;;;1.21;100.00;97779.50;1223784;75;2931307;-69
2023/10/18 04:21:28;;;;;;;11.10;7.30;;;;;;;1.09;100.00;97767.34;1223538;75;2925685;-67
2023/10/18 04:24:03;;;;;;;8.50;7.30;;;;;;;1.12;100.00;97773.84;1223854;75;2928595;-69
2023/10/18 04:26:36;;;;;;;10.05;8.90;;;;;;;0.97;100.00;97779.47;1223399;75;2929104;-70
2023/10/18 04:29:10;;;;;;;9.75;8.60;;;;;;;1.04;100.00;97776.66;1224519;75;2927056;-72
2023/10/18 04:31:44;;;;;;;9.80;7.95;;;;;;;1.14;100.00;97776.91;1224615;75;2924477;-74
2023/10/18 04:34:21;;;;;;;15.15;11.25;;;;;;;1.14;100.00;97782.31;1224139;75;2925449;-72
2023/10/18 04:36:55;;;;;;;14.85;11.20;;;;;;;0.96;100.00;97775.25;1224121;75;2927500;-72
2023/10/18 04:39:28;;;;;;;13.95;12.35;;;;;;;0.70;100.00;97779.47;1224357;75;2926372;-73
2023/10/18 04:42:03;;;;;;;14.45;11.95;;;;;;;0.57;100.00;97791.97;1223935;75;2923767;-72
2023/10/18 04:44:37;;;;;;;16.45;12.20;;;;;;;0.56;100.00;97785.81;1223620;75;2923102;-71
2023/10/18 04:47:14;;;;;;;13.45;11.90;;;;;;;0.48;100.00;97781.69;1224806;75;2924173;-74
2023/10/18 04:50:04;;;;;;;14.80;12.10;;;;;;;0.41;100.00;97787.16;1223972;75;2924062;-72
2023/10/18 04:52:40;;;;;;;13.60;12.15;;;;;;;0.50;100.00;97786.66;1222345;75;2926225;-70
2023/10/18 04:55:14;;;;;;;14.10;12.10;;;;;;;0.48;100.00;97787.09;1224032;75;2916598;-74
2023/10/18 04:57:46;;;;;;;15.65;13.40;;;;;;;0.51;100.00;97782.81;1221553;75;2946150;-72
2023/10/18 05:00:35;;;;;;;12.20;10.90;;;;;;;0.44;100.00;97785.59;1223915;75;2926424;-71
2023/10/18 05:03:07;;;;;;;11.30;10.00;;;;;;;0.52;100.00;97778.94;1226236;75;2852154;-72
2023/10/18 05:05:52;;;;;;;10.35;8.35;;;;;;;0.57;100.00;97791.97;1223601;75;2931631;-71
2023/10/18 05:08:23;;;;;;;7.65;6.75;;;;;;;0.81;100.00;97780.06;1223638;75;2920358;-69
2023/10/18 05:11:22;;;;;;;7.40;6.10;;;;;;;0.59;100.00;97786.94;1222685;75;2914123;-72
2023/10/18 05:13:56;;;;;;;8.35;7.30;;;;;;;0.53;100.00;97788.53;1223922;75;2929190;-70
2023/10/18 05:16:29;;;;;;;8.15;6.80;;;;;;;0.47;100.00;97782.09;1224148;83;2923833;-70
2023/10/18 05:19:04;;;;;;;7.35;6.55;;;;;;;0.63;100.00;97787.66;1222854;75;2954487;-72
2023/10/18 05:21:41;;;;;;;7.00;6.30;;;;;;;0.79;100.00;97782.41;1224322;75;2925226;-72
2023/10/18 05:24:21;;;;;;;6.45;5.30;;;;;;;0.70;100.00;97776.00;1224283;75;2934864;-71
2023/10/18 05:26:55;;;;;;;5.55;4.95;;;;;;;0.84;100.00;97776.56;1224706;75;2925286;-72
2023/10/18 05:29:33;;;;;;;5.15;4.65;;;;;;;0.94;100.00;97779.50;1224381;75;2930647;-71
2023/10/18 05:32:09;;;;;;;4.70;4.20;;;;;;;1.04;100.00;97782.06;1221877;75;2957270;-74
2023/10/18 05:34:55;;;;;;;6.80;5.65;;;;;;;0.81;100.00;97788.16;1224064;75;2923923;-70
2023/10/18 05:37:34;;;;;;;6.35;5.55;;;;;;;1.03;100.00;97780.53;1224910;75;2925736;-70
2023/10/18 05:42:54;;;;;;;5.75;4.80;;;;;;;1.16;100.00;97791.50;1222351;75;2924441;-70
2023/10/18 05:45:26;;;;;;;7.65;6.20;;;;;;;0.84;100.00;97786.56;1223405;75;2922853;-71
2023/10/18 05:48:02;;;;;;;8.50;6.90;;;;;;;0.87;100.00;97787.69;1224316;75;2919189;-72
2023/10/18 05:50:36;;;;;;;10.90;7.95;;;;;;;0.78;100.00;97791.66;1224679;75;2853517;-72
2023/10/18 05:53:18;;;;;;;10.70;7.85;;;;;;;0.73;100.00;97796.75;1219623;75;3173948;-69
2023/10/18 05:55:57;;;;;;;10.30;7.45;;;;;;;0.79;100.00;97790.50;1223559;83;2926944;-70
2023/10/18 05:58:30;;;;;;;9.45;7.75;;;;;;;0.98;100.00;97791.00;1223572;75;2928075;-70
2023/10/18 06:01:05;;;;;;;8.70;7.20;;;;;;;1.05;100.00;97788.97;1209783;75;3949485;-71
2023/10/18 06:03:41;;;;;;;8.40;7.20;;;;;;;1.02;100.00;97797.88;1224193;75;2925022;-73
2023/10/18 06:06:14;;;;;;;8.95;8.05;;;;;;;1.05;100.00;97802.44;1224063;75;2923048;-71
2023/10/18 06:08:51;;;;;;;9.70;8.00;;;;;;;1.40;100.00;97800.38;1224484;75;2932213;-71
2023/10/18 06:11:25;;;;;;;9.50;8.15;;;;;;;1.26;100.00;97801.34;1224130;75;2937545;-69
2023/10/18 06:13:58;;;;;;;11.60;9.60;;;;;;;1.42;100.00;97805.34;1208035;75;3896192;-71
2023/10/18 06:16:34;;;;;;;14.15;11.30;;;;;;;1.20;100.00;97802.22;1223870;75;2926240;-72
2023/10/18 06:19:07;;;;;;;13.90;10.90;;;;;;;1.30;100.00;97800.53;1182631;75;4068287;-70
2023/10/18 06:21:57;;;;;;;15.95;10.80;;;;;;;1.31;100.00;97800.13;1223912;75;2926570;-71
2023/10/18 06:24:33;;;;;;;11.85;9.65;;;;;;;1.26;100.00;97811.38;1223337;75;2923132;-74
2023/10/18 06:27:06;;;;;;;12.95;11.00;;;;;;;1.13;100.00;97816.59;1222854;75;2932932;-73
2023/10/18 06:29:41;;;;;;;12.00;10.20;;;;;;;1.29;100.00;97807.84;1216105;75;2928498;-69
2023/10/18 06:32:16;;;;;;;11.20;9.85;;;;;;;1.54;100.00;97806.69;1221695;75;2926544;-71
2023/10/18 06:34:55;;;;;;;11.80;10.45;;;;;;;1.27;100.00;97816.38;1222945;75;2923076;-70
2023/10/18 06:37:41;;;;;;;11.65;10.45;;;;;;;1.33;100.00;97813.97;1222546;75;2933937;-72
2023/10/18 06:40:40;;;;;;;10.65;9.10;;;;;;;1.70;100.00;97806.81;1220896;75;3083129;-72
2023/10/18 06:43:13;;;;;;;9.15;8.20;;;;;;;1.77;100.00;97814.00;1224691;75;2930710;-70
2023/10/18 06:45:50;;;;;;;10.90;9.75;;;;;;;1.92;100.00;97816.06;1224705;75;2926206;-70
2023/10/18 06:48:26;;;;;;;10.50;8.75;;;;;;;1.91;100.00;97805.66;1223779;75;2924840;-71
2023/10/18 06:50:59;;;;;;;10.75;9.60;;;;;;;2.09;100.00;97814.22;1224525;75;2931044;-73
2023/10/18 06:53:32;;;;;;;8.95;8.05;;;;;;;2.86;100.00;97808.78;1223044;75;2922468;-71
2023/10/18 06:56:19;;;;;;;7.90;7.10;;;;;;;3.77;100.00;97809.72;1221934;75;3047618;-74
2023/10/18 06:58:52;;;;;;;9.20;8.20;;;;;;;5.37;100.00;97804.81;1222960;75;2924183;-71
2023/10/18 07:01:30;;;;;;;8.00;7.20;;;;;;;5.99;100.00;97807.81;1224437;75;2925080;-70
2023/10/18 07:04:03;;;;;;;8.50;7.70;;;;;;;6.27;100.00;97800.59;1224803;75;2930349;-73
2023/10/18 07:06:37;;;;;;;6.00;5.40;;;;;;;7.13;95.46;97807.56;1223350;75;2925293;-71
2023/10/18 07:09:24;;;;;;;8.70;7.80;;;;;;;8.14;86.36;97802.25;1223824;75;2940257;-70
2023/10/18 07:12:03;;;;;;;7.10;5.85;;;;;;;11.58;67.69;97787.19;1222491;75;3007677;-74
2023/10/18 07:14:36;;;;;;;7.95;7.15;;;;;;;12.64;61.44;97790.31;1224073;75;2921324;-71
2023/10/18 07:17:09;;;;;;;10.20;9.20;;;;;;;13.94;60.40;97782.88;1224842;75;2924184;-71
2023/10/18 07:19:48;;;;;;;9.65;8.65;;;;;;;14.87;57.02;97773.78;1224640;75;2931668;-74
2023/10/18 07:22:21;;;;;;;11.40;10.20;;;;;;;13.90;57.02;97777.59;1225068;75;2921564;-73
2023/10/18 07:24:59;;;;;;;8.85;7.95;;;;;;;17.32;52.38;97779.06;1223906;75;2940122;-69
2023/10/18 07:27:34;;;;;;;7.20;6.50;;;;;;;19.47;46.59;97767.19;1223275;75;2927303;-73
2023/10/18 07:30:14;;;;;;;6.20;5.10;;;;;;;19.80;44.61;97753.94;1225305;75;2921012;-73
2023/10/18 07:32:48;;;;;;;6.50;5.10;;;;;;;19.37;44.33;97764.09;1225247;75;2929273;-75
2023/10/18 07:35:30;;;;;;;5.25;4.65;;;;;;;19.99;42.62;97760.09;1224393;75;2926415;-73
2023/10/18 07:38:03;;;;;;;8.25;5.90;;;;;;;19.20;43.86;97758.09;1223247;75;2923581;-74
2023/10/18 07:40:43;;;;;;;8.40;6.70;;;;;;;16.28;49.23;97765.81;1224410;75;2940803;-74
2023/10/18 07:43:19;;;;;;;7.55;5.75;;;;;;;18.39;46.86;97761.16;1223840;75;2929325;-76
2023/10/18 07:45:58;;;;;;;7.20;6.10;;;;;;;16.03;49.68;97762.19;1223213;75;2925898;-71
2023/10/18 07:48:31;;;;;;;7.70;6.40;;;;;;;15.87;50.85;97755.47;1222837;75;2931894;-75
2023/10/18 07:51:08;;;;;;;8.85;6.70;;;;;;;15.78;51.17;97747.53;1223685;75;2926943;-74
2023/10/18 07:53:41;;;;;;;7.35;5.80;;;;;;;17.73;48.73;97750.44;1222627;75;2939034;-75
2023/10/18 07:56:16;;;;;;;6.65;5.85;;;;;;;17.09;48.71;97742.59;1223358;75;2926374;-73
2023/10/18 07:58:53;;;;;;;5.85;4.35;;;;;;;17.77;47.77;97734.28;1221721;75;2943481;-74
2023/10/18 08:01:47;;;;;;;7.80;5.80;;;;;;;15.16;54.03;97747.69;1224113;75;2927575;-74
2023/10/18 08:04:20;;;;;;;8.65;6.35;;;;;;;12.25;62.45;97757.78;1224387;75;2931400;-74
2023/10/18 08:06:56;;;;;;;7.25;5.85;;;;;;;13.89;59.32;97743.09;1223672;75;2934261;-73
2023/10/18 08:09:31;;;;;;;8.60;6.70;;;;;;;11.88;63.33;97755.66;1222704;75;2935603;-74
2023/10/18 08:12:08;;;;;;;7.05;5.85;;;;;;;12.72;63.17;97746.69;1223148;75;2928857;-75
2023/10/18 08:14:46;;;;;;;6.80;5.70;;;;;;;13.06;61.80;97747.69;1222268;75;2922936;-73
2023/10/18 08:22:53;;;;;;;11.30;7.20;;;;;;;12.10;65.90;97754.41;1224379;75;2929773;-76
2023/10/18 08:25:29;;;;;;;7.65;5.85;;;;;;;13.31;60.98;97753.59;1221823;75;2938577;-74
2023/10/18 08:28:06;;;;;;;11.00;7.25;;;;;;;11.43;66.45;97743.38;1223315;75;2923711;-73
2023/10/18 08:31:03;;;;;;;11.30;7.70;;;;;;;10.85;69.75;97741.09;1223583;75;2921781;-72
2023/10/18 08:33:34;;;;;;;11.70;8.30;;;;;;;9.98;71.99;97744.09;1221929;75;2964119;-71
2023/10/18 08:36:13;;;;;;;13.00;7.90;;;;;;;11.06;71.99;97744.63;1223313;75;2926240;-72
2023/10/18 08:38:45;;;;;;;12.15;8.85;;;;;;;10.05;74.24;97742.22;1222316;75;2923549;-71
2023/10/18 08:41:21;;;;;;;10.50;8.25;;;;;;;10.27;74.19;97750.06;1223731;75;2927051;-71
2023/10/18 08:44:19;;;;;;;9.90;8.45;;;;;;;11.88;70.17;97738.44;1223614;75;2921744;-71
2023/10/18 08:47:04;;;;;;;11.10;8.10;;;;;;;11.92;70.62;97736.22;1223343;75;2931110;-73
2023/10/18 08:49:44;;;;;;;11.35;7.90;;;;;;;10.73;74.13;97733.19;1223616;75;2918067;-70
2023/10/18 08:52:20;;;;;;;15.50;11.15;;;;;;;11.54;70.66;97740.75;1222717;75;2927579;-72
2023/10/18 08:54:53;;;;;;;10.60;9.00;;;;;;;10.07;76.07;97735.03;1224224;75;2930238;-73
2023/10/18 08:57:35;;;;;;;11.30;8.30;;;;;;;11.37;71.48;97732.31;1223539;75;2926353;-72
2023/10/18 09:01:02;;;;;;;11.80;9.15;;;;;;;10.26;76.73;97721.94;1223370;75;2926641;-74
2023/10/18 09:03:14;;;;;;;14.05;9.80;;;;;;;10.43;77.65;97727.72;1223713;75;2931241;-74
2023/10/18 09:05:48;;;;;;;15.40;10.85;;;;;;;9.98;79.29;97726.91;1223936;75;2933366;-73
2023/10/18 09:08:26;;;;;;;14.40;11.40;;;;;;;10.34;76.76;97723.13;1222568;75;2924242;-73
2023/10/18 09:11:03;;;;;;;12.00;10.10;;;;;;;10.27;78.65;97728.16;1223225;75;2928143;-74
2023/10/18 09:13:37;;;;;;;16.10;10.70;;;;;;;10.18;76.81;97734.50;1223580;75;2917552;-74
2023/10/18 09:16:19;;;;;;;14.25;10.00;;;;;;;10.28;75.43;97737.91;1223162;75;2928131;-72
2023/10/18 09:18:55;;;;;;;13.35;9.75;;;;;;;10.83;76.11;97734.59;1222670;75;2929299;-74
2023/10/18 09:21:36;;;;;;;11.75;10.25;;;;;;;9.77;78.27;97729.53;1224454;75;2927234;-71
2023/10/18 09:24:09;;;;;;;12.55;9.65;;;;;;;10.29;76.76;97731.22;1224634;75;2923849;-73
2023/10/18 09:26:45;;;;;;;9.85;8.35;;;;;;;10.93;72.79;97724.28;1224105;75;2925803;-75
2023/10/18 09:29:20;;;;;;;13.15;9.65;;;;;;;10.42;75.15;97723.50;1223803;75;2935418;-74
2023/10/18 09:31:54;;;;;;;11.90;8.90;;;;;;;11.79;71.38;97724.84;1220526;75;2943490;-75
2023/10/18 09:34:33;;;;;;;10.65;7.50;;;;;;;11.75;69.93;97729.78;1224291;75;2917900;-72
2023/10/18 09:37:11;;;;;;;11.70;8.60;;;;;;;9.90;73.81;97728.53;1223442;75;2925707;-71
2023/10/18 09:39:46;;;;;;;8.85;7.25;;;;;;;10.52;74.09;97733.09;1224111;75;2915166;-74
2023/10/18 09:42:21;;;;;;;11.55;8.10;;;;;;;10.57;73.39;97732.44;1224251;75;2928951;-74
2023/10/18 09:44:54;;;;;;;10.80;7.80;;;;;;;10.45;71.89;97734.25;1224021;75;2925154;-74
2023/10/18 09:47:28;;;;;;;9.65;7.75;;;;;;;11.27;70.96;97736.44;1223543;75;2917228;-74
2023/10/18 09:50:09;;;;;;;10.40;8.05;;;;;;;11.19;71.97;97729.84;1223385;75;2925489;-72
2023/10/18 09:52:56;;;;;;;12.40;8.35;;;;;;;11.47;70.92;97730.97;1222684;75;2925249;-74
2023/10/18 09:55:30;;;;;;;11.65;7.30;;;;;;;12.08;68.91;97724.69;1224319;75;2921473;-73
2023/10/18 09:58:14;;;;;;;9.95;7.50;;;;;;;12.31;66.60;97717.44;1224111;75;2921542;-73
2023/10/18 10:00:50;;;;;;;9.40;7.80;;;;;;;12.34;67.35;97721.19;1224884;75;2926572;-75
2023/10/18 10:03:26;;;;;;;10.85;7.85;;;;;;;13.27;64.67;97704.34;1224225;75;2948633;-73
2023/10/18 10:06:03;;;;;;;10.15;8.50;;;;;;;12.90;64.64;97701.63;1224477;75;2926044;-70
2023/10/18 10:08:38;;;;;;;9.70;7.60;;;;;;;13.33;64.96;97698.88;1223886;75;2924990;-75
2023/10/18 10:11:19;;;;;;;14.30;8.60;;;;;;;11.73;67.79;97713.81;1222481;75;2920206;-74
2023/10/18 10:13:53;;;;;;;9.10;7.40;;;;;;;12.72;66.55;97700.00;1222899;75;2928984;-76
2023/10/18 10:16:27;;;;;;;7.85;6.40;;;;;;;13.61;62.40;97697.00;1220890;75;2961726;-74
2023/10/18 10:19:04;;;;;;;9.20;7.80;;;;;;;13.30;63.81;97692.38;1223676;75;2930818;-72
2023/10/18 10:21:41;;;;;;;14.00;10.20;;;;;;;15.16;60.03;97678.75;1223970;75;2920985;-73
2023/10/18 10:27:41;;;;;;;10.30;7.90;;;;;;;13.51;62.34;97686.69;1224759;75;2924994;-76
2023/10/18 10:30:25;;;;;;;10.15;7.40;;;;;;;13.85;62.05;97673.78;1225085;75;2924559;-73
2023/10/18 10:33:05;;;;;;;9.15;6.80;;;;;;;13.99;61.34;97683.06;1223794;75;2916805;-76
2023/10/18 10:35:47;;;;;;;9.35;6.90;;;;;;;14.34;61.40;97677.09;1224125;75;2931838;-75
2023/10/18 10:38:29;;;;;;;8.35;6.75;;;;;;;14.99;58.44;97667.03;1223347;75;2931958;-71
2023/10/18 10:41:19;;;;;;;9.75;6.85;;;;;;;14.05;59.41;97668.06;1223722;75;2925192;-72
2023/10/18 10:44:11;;;;;;;6.90;6.10;;;;;;;15.03;57.78;97676.53;1224115;75;2957925;-70
2023/10/18 10:46:45;;;;;;;6.55;5.20;;;;;;;15.44;56.01;97653.81;1224047;75;2928086;-73
2023/10/18 10:49:58;;;;;;;8.00;6.35;;;;;;;14.30;58.63;97660.06;1223953;75;2935142;-76
2023/10/18 10:52:33;;;;;;;8.00;6.75;;;;;;;15.27;55.96;97653.91;1225088;75;2922186;-73
2023/10/18 10:55:24;;;;;;;6.90;5.90;;;;;;;15.67;55.65;97648.94;1224745;75;2921494;-74
2023/10/18 10:57:57;;;;;;;8.00;6.60;;;;;;;14.82;56.59;97643.00;1224899;75;2920686;-71
2023/10/18 11:00:49;;;;;;;8.60;7.25;;;;;;;15.18;56.90;97629.38;1222861;75;2928275;-73
2023/10/18 11:03:52;;;;;;;9.15;6.60;;;;;;;15.40;55.86;97619.50;1224264;75;2925470;-73
2023/10/18 11:06:26;;;;;;;7.50;5.20;;;;;;;14.68;58.50;97625.50;1222362;75;2972322;-74
2023/10/18 11:08:59;;;;;;;6.50;5.65;;;;;;;14.88;57.25;97623.69;1224335;75;2925428;-74
2023/10/18 11:11:35;;;;;;;5.90;5.10;;;;;;;14.86;57.91;97617.94;1222437;75;2939073;-74
2023/10/18 11:14:08;;;;;;;6.90;5.55;;;;;;;15.94;55.27;97616.16;1224894;75;2926643;-77
2023/10/18 11:16:41;;;;;;;6.50;5.40;;;;;;;15.57;55.06;97619.41;1198294;75;3946915;-73
2023/10/18 11:19:15;;;;;;;7.00;5.30;;;;;;;15.88;54.68;97618.97;1223991;75;2925604;-75
2023/10/18 11:21:51;;;;;;;6.30;5.00;;;;;;;15.44;55.17;97617.19;1212367;75;3828447;-72
2023/10/18 11:24:24;;;;;;;7.25;5.25;;;;;;;16.02;54.79;97611.59;1224656;75;2932554;-75
2023/10/18 11:27:02;;;;;;;7.25;5.40;;;;;;;14.93;55.63;97600.13;1224479;75;2936204;-74
2023/10/18 11:29:34;;;;;;;5.95;4.95;;;;;;;15.10;54.88;97607.09;1223390;75;2936934;-70
2023/10/18 11:32:15;;;;;;;6.95;5.60;;;;;;;14.77;56.83;97601.66;1224254;75;2926629;-75
2023/10/18 11:34:51;;;;;;;5.00;4.30;;;;;;;15.04;56.95;97592.56;1224984;75;2926018;-73
2023/10/18 11:37:34;;;;;;;6.65;5.20;;;;;;;14.52;59.19;97593.19;1223320;75;2930849;-75
2023/10/18 11:40:15;;;;;;;6.80;5.55;;;;;;;14.76;57.14;97586.41;1224477;75;2920064;-76
2023/10/18 11:43:08;;;;;;;6.75;5.80;;;;;;;14.26;59.38;97585.97;1224300;75;2921936;-76
2023/10/18 11:45:42;;;;;;;6.95;5.40;;;;;;;14.53;59.11;97574.66;1223126;75;2927264;-75
2023/10/18 11:48:17;;;;;;;6.90;5.30;;;;;;;14.10;60.24;97578.47;1222448;75;2925551;-73
2023/10/18 11:50:51;;;;;;;7.30;5.60;;;;;;;13.85;60.57;97577.47;1223866;75;2913585;-70
2023/10/18 11:53:26;;;;;;;5.65;4.10;;;;;;;15.66;58.52;97572.94;1224346;75;2927690;-75
2023/10/18 11:56:00;;;;;;;5.40;3.90;;;;;;;15.72;57.62;97557.09;1225112;75;2915543;-75
2023/10/18 11:58:41;;;;;;;5.15;3.40;;;;;;;15.96;56.68;97559.16;1223973;75;2926034;-73
2023/10/18 12:01:31;;;;;;;5.45;4.20;;;;;;;15.81;56.52;97556.03;1223647;75;2931805;-74
2023/10/18 12:04:08;;;;;;;5.90;4.80;;;;;;;15.59;57.28;97548.63;1224388;75;2927381;-73
2023/10/18 12:06:41;;;;;;;5.90;5.20;;;;;;;14.77;57.95;97546.56;1224512;75;2924163;-73
2023/10/18 12:09:30;;;;;;;4.90;4.20;;;;;;;15.85;55.51;97544.69;1224129;75;2931894;-74
2023/10/18 12:12:05;;;;;;;7.25;5.60;;;;;;;15.02;57.22;97539.94;1224227;75;2940910;-77